sensor_id;sensor_type;location;lat;lon;timestamp;P1;durP1;ratioP1;P2;durP2;ratioP2
54599;SDS011;40500;51.084;16.958;2023-02-15T00:01:47;20.30;;;10.90;;
54599;SDS011;40500;51.084;16.958;2023-02-15T00:04:16;18.30;;;9.50;;
54599;SDS011;40500;51.084;16.958;2023-02-15T00:06:45;19.50;;;10.20;;
54599;SDS011;40500;51.084;16.958;2023-02-15T00:09:14;21.80;;;11.10;;
54599;SDS011;40500;51.084;16.958;2023-02-15T00:11:42;22.10;;;10.50;;
54599;SDS011;40500;51.084;16.958;2023-02-15T00:14:16;19.00;;;10.80;;
54599;SDS011;40500;51.084;16.958;2023-02-15T00:16:46;21.90;;;11.00;;
54599;SDS011;40500;51.084;16.958;2023-02-15T00:19:16;18.50;;;10.10;;
54599;SDS011;40500;51.084;16.958;2023-02-15T00:21:45;16.40;;;9.10;;
54599;SDS011;40500;51.084;16.958;2023-02-15T00:24:16;19.80;;;11.60;;
54599;SDS011;40500;51.084;16.958;2023-02-15T00:26:45;22.00;;;11.90;;
54599;SDS011;40500;51.084;16.958;2023-02-15T00:29:15;18.10;;;10.10;;
54599;SDS011;40500;51.084;16.958;2023-02-15T00:31:45;23.60;;;11.70;;
54599;SDS011;40500;51.084;16.958;2023-02-15T00:34:13;17.60;;;9.80;;
54599;SDS011;40500;51.084;16.958;2023-02-15T00:36:43;23.20;;;11.10;;
54599;SDS011;40500;51.084;16.958;2023-02-15T00:39:14;26.10;;;12.00;;
54599;SDS011;40500;51.084;16.958;2023-02-15T00:41:43;22.70;;;10.90;;
54599;SDS011;40500;51.084;16.958;2023-02-15T00:44:13;21.90;;;11.00;;
54599;SDS011;40500;51.084;16.958;2023-02-15T00:46:43;20.60;;;10.20;;
54599;SDS011;40500;51.084;16.958;2023-02-15T00:49:11;21.50;;;12.40;;
54599;SDS011;40500;51.084;16.958;2023-02-15T00:51:39;24.50;;;11.20;;
54599;SDS011;40500;51.084;16.958;2023-02-15T00:54:07;22.50;;;11.70;;
54599;SDS011;40500;51.084;16.958;2023-02-15T00:56:35;21.30;;;12.10;;
54599;SDS011;40500;51.084;16.958;2023-02-15T00:59:03;24.40;;;12.70;;
54599;SDS011;40500;51.084;16.958;2023-02-15T01:01:32;20.00;;;11.00;;
54599;SDS011;40500;51.084;16.958;2023-02-15T01:04:00;21.40;;;12.00;;
54599;SDS011;40500;51.084;16.958;2023-02-15T01:06:29;23.50;;;13.00;;
54599;SDS011;40500;51.084;16.958;2023-02-15T01:08:56;28.20;;;15.00;;
54599;SDS011;40500;51.084;16.958;2023-02-15T01:11:25;25.80;;;12.80;;
54599;SDS011;40500;51.084;16.958;2023-02-15T01:13:53;26.00;;;12.80;;
54599;SDS011;40500;51.084;16.958;2023-02-15T01:16:22;30.80;;;14.30;;
54599;SDS011;40500;51.084;16.958;2023-02-15T01:18:51;25.80;;;12.60;;
54599;SDS011;40500;51.084;16.958;2023-02-15T01:21:21;19.40;;;9.80;;
54599;SDS011;40500;51.084;16.958;2023-02-15T01:23:51;26.50;;;12.20;;
54599;SDS011;40500;51.084;16.958;2023-02-15T01:26:19;27.90;;;14.10;;
54599;SDS011;40500;51.084;16.958;2023-02-15T01:28:47;24.20;;;13.90;;
54599;SDS011;40500;51.084;16.958;2023-02-15T01:31:17;24.30;;;12.20;;
54599;SDS011;40500;51.084;16.958;2023-02-15T01:33:47;24.20;;;12.10;;
54599;SDS011;40500;51.084;16.958;2023-02-15T01:36:14;27.90;;;14.00;;
54599;SDS011;40500;51.084;16.958;2023-02-15T01:38:43;24.60;;;12.90;;
54599;SDS011;40500;51.084;16.958;2023-02-15T01:41:11;29.70;;;13.70;;
54599;SDS011;40500;51.084;16.958;2023-02-15T01:43:53;20.20;;;11.10;;
54599;SDS011;40500;51.084;16.958;2023-02-15T01:46:24;24.30;;;11.20;;
54599;SDS011;40500;51.084;16.958;2023-02-15T01:48:56;23.20;;;11.60;;
54599;SDS011;40500;51.084;16.958;2023-02-15T01:51:30;23.60;;;12.40;;
54599;SDS011;40500;51.084;16.958;2023-02-15T01:54:02;19.80;;;11.70;;
54599;SDS011;40500;51.084;16.958;2023-02-15T01:56:36;23.40;;;12.30;;
54599;SDS011;40500;51.084;16.958;2023-02-15T01:59:07;23.40;;;13.10;;
54599;SDS011;40500;51.084;16.958;2023-02-15T02:01:41;24.10;;;11.90;;
54599;SDS011;40500;51.084;16.958;2023-02-15T02:04:11;21.10;;;11.30;;
54599;SDS011;40500;51.084;16.958;2023-02-15T02:06:44;22.10;;;12.40;;
54599;SDS011;40500;51.084;16.958;2023-02-15T02:09:15;26.70;;;13.70;;
54599;SDS011;40500;51.084;16.958;2023-02-15T02:11:43;24.90;;;13.00;;
54599;SDS011;40500;51.084;16.958;2023-02-15T02:14:14;27.20;;;14.10;;
54599;SDS011;40500;51.084;16.958;2023-02-15T02:16:45;18.40;;;10.90;;
54599;SDS011;40500;51.084;16.958;2023-02-15T02:22:27;27.80;;;13.20;;
54599;SDS011;40500;51.084;16.958;2023-02-15T02:25:36;24.80;;;13.60;;
54599;SDS011;40500;51.084;16.958;2023-02-15T02:28:35;29.80;;;14.60;;
54599;SDS011;40500;51.084;16.958;2023-02-15T02:31:24;25.20;;;13.70;;
54599;SDS011;40500;51.084;16.958;2023-02-15T02:34:06;30.50;;;14.20;;
54599;SDS011;40500;51.084;16.958;2023-02-15T02:36:41;35.60;;;15.70;;
54599;SDS011;40500;51.084;16.958;2023-02-15T02:39:21;30.80;;;15.50;;
54599;SDS011;40500;51.084;16.958;2023-02-15T02:42:00;29.30;;;15.50;;
54599;SDS011;40500;51.084;16.958;2023-02-15T02:44:36;30.10;;;15.00;;
54599;SDS011;40500;51.084;16.958;2023-02-15T02:47:09;25.60;;;13.60;;
54599;SDS011;40500;51.084;16.958;2023-02-15T02:49:42;35.70;;;16.70;;
54599;SDS011;40500;51.084;16.958;2023-02-15T02:55:01;34.90;;;16.50;;
54599;SDS011;40500;51.084;16.958;2023-02-15T02:57:33;33.80;;;16.80;;
54599;SDS011;40500;51.084;16.958;2023-02-15T03:00:04;29.60;;;16.50;;
54599;SDS011;40500;51.084;16.958;2023-02-15T03:02:35;33.40;;;16.40;;
54599;SDS011;40500;51.084;16.958;2023-02-15T03:05:08;33.90;;;16.90;;
54599;SDS011;40500;51.084;16.958;2023-02-15T03:07:40;29.40;;;16.00;;
54599;SDS011;40500;51.084;16.958;2023-02-15T03:10:10;35.30;;;17.20;;
54599;SDS011;40500;51.084;16.958;2023-02-15T03:12:39;39.50;;;19.60;;
54599;SDS011;40500;51.084;16.958;2023-02-15T03:15:09;37.30;;;17.60;;
54599;SDS011;40500;51.084;16.958;2023-02-15T03:17:42;30.60;;;16.90;;
54599;SDS011;40500;51.084;16.958;2023-02-15T03:20:14;31.20;;;16.30;;
54599;SDS011;40500;51.084;16.958;2023-02-15T03:22:47;29.50;;;14.80;;
54599;SDS011;40500;51.084;16.958;2023-02-15T03:25:19;34.00;;;16.60;;
54599;SDS011;40500;51.084;16.958;2023-02-15T03:27:51;30.80;;;15.50;;
54599;SDS011;40500;51.084;16.958;2023-02-15T03:30:22;41.10;;;18.30;;
54599;SDS011;40500;51.084;16.958;2023-02-15T03:32:54;39.00;;;19.30;;
54599;SDS011;40500;51.084;16.958;2023-02-15T03:35:24;28.20;;;14.60;;
54599;SDS011;40500;51.084;16.958;2023-02-15T03:38:00;36.90;;;18.50;;
54599;SDS011;40500;51.084;16.958;2023-02-15T03:40:33;33.70;;;15.90;;
54599;SDS011;40500;51.084;16.958;2023-02-15T03:43:23;29.10;;;15.00;;
54599;SDS011;40500;51.084;16.958;2023-02-15T03:46:00;33.10;;;15.80;;
54599;SDS011;40500;51.084;16.958;2023-02-15T03:48:33;31.40;;;16.00;;
54599;SDS011;40500;51.084;16.958;2023-02-15T03:51:10;33.80;;;15.90;;
54599;SDS011;40500;51.084;16.958;2023-02-15T03:54:03;31.20;;;15.90;;
54599;SDS011;40500;51.084;16.958;2023-02-15T03:56:35;35.00;;;17.50;;
54599;SDS011;40500;51.084;16.958;2023-02-15T03:59:05;41.90;;;20.20;;
54599;SDS011;40500;51.084;16.958;2023-02-15T04:01:55;25.00;;;13.90;;
54599;SDS011;40500;51.084;16.958;2023-02-15T04:04:34;28.10;;;14.60;;
54599;SDS011;40500;51.084;16.958;2023-02-15T04:07:03;36.30;;;18.20;;
54599;SDS011;40500;51.084;16.958;2023-02-15T04:09:33;35.40;;;16.90;;
54599;SDS011;40500;51.084;16.958;2023-02-15T04:14:47;31.90;;;15.70;;
54599;SDS011;40500;51.084;16.958;2023-02-15T04:17:35;38.00;;;17.80;;
54599;SDS011;40500;51.084;16.958;2023-02-15T04:20:03;32.70;;;16.50;;
54599;SDS011;40500;51.084;16.958;2023-02-15T04:22:51;34.90;;;17.10;;
54599;SDS011;40500;51.084;16.958;2023-02-15T04:25:37;49.40;;;21.00;;
54599;SDS011;40500;51.084;16.958;2023-02-15T04:28:05;36.60;;;16.90;;
54599;SDS011;40500;51.084;16.958;2023-02-15T04:30:33;41.10;;;18.60;;
54599;SDS011;40500;51.084;16.958;2023-02-15T04:33:01;31.80;;;16.20;;
54599;SDS011;40500;51.084;16.958;2023-02-15T04:35:29;33.30;;;17.50;;
54599;SDS011;40500;51.084;16.958;2023-02-15T04:37:57;36.40;;;18.10;;
54599;SDS011;40500;51.084;16.958;2023-02-15T04:40:25;35.70;;;16.20;;
54599;SDS011;40500;51.084;16.958;2023-02-15T04:42:53;38.60;;;18.20;;
54599;SDS011;40500;51.084;16.958;2023-02-15T04:45:21;32.40;;;17.70;;
54599;SDS011;40500;51.084;16.958;2023-02-15T04:47:50;33.50;;;17.30;;
54599;SDS011;40500;51.084;16.958;2023-02-15T04:50:18;33.70;;;16.50;;
54599;SDS011;40500;51.084;16.958;2023-02-15T04:52:45;41.10;;;19.00;;
54599;SDS011;40500;51.084;16.958;2023-02-15T04:55:13;30.30;;;17.00;;
54599;SDS011;40500;51.084;16.958;2023-02-15T04:57:41;30.10;;;16.90;;
54599;SDS011;40500;51.084;16.958;2023-02-15T05:00:09;33.70;;;17.60;;
54599;SDS011;40500;51.084;16.958;2023-02-15T05:02:37;38.20;;;17.70;;
54599;SDS011;40500;51.084;16.958;2023-02-15T05:05:05;32.50;;;16.10;;
54599;SDS011;40500;51.084;16.958;2023-02-15T05:07:35;34.10;;;18.70;;
54599;SDS011;40500;51.084;16.958;2023-02-15T05:10:03;32.80;;;17.70;;
54599;SDS011;40500;51.084;16.958;2023-02-15T05:12:35;33.30;;;16.00;;
54599;SDS011;40500;51.084;16.958;2023-02-15T05:15:06;33.60;;;15.50;;
54599;SDS011;40500;51.084;16.958;2023-02-15T05:17:38;33.90;;;16.80;;
54599;SDS011;40500;51.084;16.958;2023-02-15T05:20:08;24.20;;;13.40;;
54599;SDS011;40500;51.084;16.958;2023-02-15T05:22:36;32.50;;;16.90;;
54599;SDS011;40500;51.084;16.958;2023-02-15T05:25:08;35.10;;;17.40;;
54599;SDS011;40500;51.084;16.958;2023-02-15T05:27:54;38.10;;;17.30;;
54599;SDS011;40500;51.084;16.958;2023-02-15T05:30:40;34.10;;;16.20;;
54599;SDS011;40500;51.084;16.958;2023-02-15T05:33:09;33.40;;;17.10;;
54599;SDS011;40500;51.084;16.958;2023-02-15T05:35:37;32.00;;;16.70;;
54599;SDS011;40500;51.084;16.958;2023-02-15T05:38:04;34.50;;;16.70;;
54599;SDS011;40500;51.084;16.958;2023-02-15T05:40:32;34.20;;;17.10;;
54599;SDS011;40500;51.084;16.958;2023-02-15T05:42:59;34.40;;;17.00;;
54599;SDS011;40500;51.084;16.958;2023-02-15T05:45:27;34.70;;;16.30;;
54599;SDS011;40500;51.084;16.958;2023-02-15T05:47:55;30.40;;;16.20;;
54599;SDS011;40500;51.084;16.958;2023-02-15T05:50:24;30.60;;;14.70;;
54599;SDS011;40500;51.084;16.958;2023-02-15T05:52:52;32.90;;;15.30;;
54599;SDS011;40500;51.084;16.958;2023-02-15T05:55:20;31.60;;;15.20;;
54599;SDS011;40500;51.084;16.958;2023-02-15T05:57:47;30.00;;;15.80;;
54599;SDS011;40500;51.084;16.958;2023-02-15T06:00:16;28.70;;;14.90;;
54599;SDS011;40500;51.084;16.958;2023-02-15T06:02:44;36.40;;;16.80;;
54599;SDS011;40500;51.084;16.958;2023-02-15T06:05:12;35.20;;;15.90;;
54599;SDS011;40500;51.084;16.958;2023-02-15T06:07:40;30.30;;;15.70;;
54599;SDS011;40500;51.084;16.958;2023-02-15T06:10:10;29.90;;;13.80;;
54599;SDS011;40500;51.084;16.958;2023-02-15T06:12:40;30.80;;;15.30;;
54599;SDS011;40500;51.084;16.958;2023-02-15T06:15:08;31.70;;;15.70;;
54599;SDS011;40500;51.084;16.958;2023-02-15T06:17:36;32.60;;;16.10;;
54599;SDS011;40500;51.084;16.958;2023-02-15T06:20:05;29.40;;;15.30;;
54599;SDS011;40500;51.084;16.958;2023-02-15T06:22:34;29.00;;;14.80;;
54599;SDS011;40500;51.084;16.958;2023-02-15T06:25:02;28.30;;;13.00;;
54599;SDS011;40500;51.084;16.958;2023-02-15T06:27:30;27.40;;;14.10;;
54599;SDS011;40500;51.084;16.958;2023-02-15T06:29:57;28.80;;;13.90;;
54599;SDS011;40500;51.084;16.958;2023-02-15T06:32:25;32.10;;;16.20;;
54599;SDS011;40500;51.084;16.958;2023-02-15T06:34:52;33.40;;;16.50;;
54599;SDS011;40500;51.084;16.958;2023-02-15T06:37:20;39.10;;;18.30;;
54599;SDS011;40500;51.084;16.958;2023-02-15T06:39:48;25.90;;;13.30;;
54599;SDS011;40500;51.084;16.958;2023-02-15T06:42:15;30.60;;;16.20;;
54599;SDS011;40500;51.084;16.958;2023-02-15T06:44:44;35.60;;;15.40;;
54599;SDS011;40500;51.084;16.958;2023-02-15T06:47:12;36.30;;;15.60;;
54599;SDS011;40500;51.084;16.958;2023-02-15T06:49:54;31.20;;;16.60;;
54599;SDS011;40500;51.084;16.958;2023-02-15T06:52:21;34.60;;;18.10;;
54599;SDS011;40500;51.084;16.958;2023-02-15T06:54:49;38.80;;;18.90;;
54599;SDS011;40500;51.084;16.958;2023-02-15T06:57:17;33.30;;;16.60;;
54599;SDS011;40500;51.084;16.958;2023-02-15T07:00:04;38.00;;;18.50;;
54599;SDS011;40500;51.084;16.958;2023-02-15T07:02:59;30.90;;;16.10;;
54599;SDS011;40500;51.084;16.958;2023-02-15T07:06:00;29.30;;;15.30;;
54599;SDS011;40500;51.084;16.958;2023-02-15T07:08:34;30.70;;;15.90;;
54599;SDS011;40500;51.084;16.958;2023-02-15T07:11:04;37.00;;;17.90;;
54599;SDS011;40500;51.084;16.958;2023-02-15T07:13:52;36.60;;;18.10;;
54599;SDS011;40500;51.084;16.958;2023-02-15T07:16:23;33.70;;;18.40;;
54599;SDS011;40500;51.084;16.958;2023-02-15T07:19:00;37.90;;;18.70;;
54599;SDS011;40500;51.084;16.958;2023-02-15T07:21:31;38.10;;;19.70;;
54599;SDS011;40500;51.084;16.958;2023-02-15T07:24:00;30.00;;;16.30;;
54599;SDS011;40500;51.084;16.958;2023-02-15T07:26:52;34.20;;;17.70;;
54599;SDS011;40500;51.084;16.958;2023-02-15T07:29:37;36.60;;;18.10;;
54599;SDS011;40500;51.084;16.958;2023-02-15T07:32:09;37.60;;;18.80;;
54599;SDS011;40500;51.084;16.958;2023-02-15T07:34:41;33.40;;;17.90;;
54599;SDS011;40500;51.084;16.958;2023-02-15T07:37:12;32.00;;;17.70;;
54599;SDS011;40500;51.084;16.958;2023-02-15T07:39:54;31.80;;;17.90;;
54599;SDS011;40500;51.084;16.958;2023-02-15T07:42:24;38.30;;;18.00;;
54599;SDS011;40500;51.084;16.958;2023-02-15T07:44:52;32.30;;;16.90;;
54599;SDS011;40500;51.084;16.958;2023-02-15T07:47:20;31.20;;;16.70;;
54599;SDS011;40500;51.084;16.958;2023-02-15T07:49:49;33.40;;;17.10;;
54599;SDS011;40500;51.084;16.958;2023-02-15T07:52:18;38.80;;;19.70;;
54599;SDS011;40500;51.084;16.958;2023-02-15T07:55:03;32.80;;;17.70;;
54599;SDS011;40500;51.084;16.958;2023-02-15T07:57:35;30.50;;;16.00;;
54599;SDS011;40500;51.084;16.958;2023-02-15T08:00:26;34.90;;;16.30;;
54599;SDS011;40500;51.084;16.958;2023-02-15T08:02:58;26.00;;;14.80;;
54599;SDS011;40500;51.084;16.958;2023-02-15T08:05:58;34.90;;;17.30;;
54599;SDS011;40500;51.084;16.958;2023-02-15T08:08:27;36.50;;;18.70;;
54599;SDS011;40500;51.084;16.958;2023-02-15T08:11:16;35.20;;;18.60;;
54599;SDS011;40500;51.084;16.958;2023-02-15T08:14:00;28.20;;;15.00;;
54599;SDS011;40500;51.084;16.958;2023-02-15T08:16:31;30.70;;;15.50;;
54599;SDS011;40500;51.084;16.958;2023-02-15T08:19:02;24.30;;;14.00;;
54599;SDS011;40500;51.084;16.958;2023-02-15T08:21:32;29.20;;;15.10;;
54599;SDS011;40500;51.084;16.958;2023-02-15T08:24:01;30.50;;;16.90;;
54599;SDS011;40500;51.084;16.958;2023-02-15T08:26:53;24.90;;;13.00;;
54599;SDS011;40500;51.084;16.958;2023-02-15T08:29:30;25.40;;;14.20;;
54599;SDS011;40500;51.084;16.958;2023-02-15T08:32:02;29.50;;;16.40;;
54599;SDS011;40500;51.084;16.958;2023-02-15T08:34:32;27.40;;;14.90;;
54599;SDS011;40500;51.084;16.958;2023-02-15T08:37:03;28.00;;;14.60;;
54599;SDS011;40500;51.084;16.958;2023-02-15T08:39:33;28.60;;;15.20;;
54599;SDS011;40500;51.084;16.958;2023-02-15T08:42:01;24.80;;;13.60;;
54599;SDS011;40500;51.084;16.958;2023-02-15T08:45:01;28.40;;;15.30;;
54599;SDS011;40500;51.084;16.958;2023-02-15T08:47:30;30.00;;;16.30;;
54599;SDS011;40500;51.084;16.958;2023-02-15T08:49:58;27.00;;;14.00;;
54599;SDS011;40500;51.084;16.958;2023-02-15T08:52:26;29.20;;;15.60;;
54599;SDS011;40500;51.084;16.958;2023-02-15T08:54:54;33.80;;;17.30;;
54599;SDS011;40500;51.084;16.958;2023-02-15T08:57:21;31.90;;;16.50;;
54599;SDS011;40500;51.084;16.958;2023-02-15T08:59:53;33.30;;;14.90;;
54599;SDS011;40500;51.084;16.958;2023-02-15T09:02:24;27.20;;;14.60;;
54599;SDS011;40500;51.084;16.958;2023-02-15T09:04:52;27.70;;;14.50;;
54599;SDS011;40500;51.084;16.958;2023-02-15T09:07:31;31.90;;;17.50;;
54599;SDS011;40500;51.084;16.958;2023-02-15T09:09:59;30.20;;;16.00;;
54599;SDS011;40500;51.084;16.958;2023-02-15T09:12:27;30.30;;;16.30;;
54599;SDS011;40500;51.084;16.958;2023-02-15T09:14:55;32.00;;;16.50;;
54599;SDS011;40500;51.084;16.958;2023-02-15T09:17:23;30.00;;;16.50;;
54599;SDS011;40500;51.084;16.958;2023-02-15T09:19:51;36.60;;;18.60;;
54599;SDS011;40500;51.084;16.958;2023-02-15T09:22:19;35.90;;;18.20;;
54599;SDS011;40500;51.084;16.958;2023-02-15T09:24:56;34.10;;;16.50;;
54599;SDS011;40500;51.084;16.958;2023-02-15T09:27:24;30.60;;;14.60;;
54599;SDS011;40500;51.084;16.958;2023-02-15T09:29:53;30.50;;;16.60;;
54599;SDS011;40500;51.084;16.958;2023-02-15T09:32:21;31.60;;;17.30;;
54599;SDS011;40500;51.084;16.958;2023-02-15T09:34:49;33.90;;;16.50;;
54599;SDS011;40500;51.084;16.958;2023-02-15T09:37:22;30.20;;;16.10;;
54599;SDS011;40500;51.084;16.958;2023-02-15T09:39:51;29.20;;;15.10;;
54599;SDS011;40500;51.084;16.958;2023-02-15T09:45:26;28.60;;;15.60;;
54599;SDS011;40500;51.084;16.958;2023-02-15T09:50:53;29.80;;;15.80;;
54599;SDS011;40500;51.084;16.958;2023-02-15T09:53:41;26.70;;;13.80;;
54599;SDS011;40500;51.084;16.958;2023-02-15T09:56:28;26.60;;;14.80;;
54599;SDS011;40500;51.084;16.958;2023-02-15T09:59:06;24.70;;;13.40;;
54599;SDS011;40500;51.084;16.958;2023-02-15T10:01:44;19.20;;;10.30;;
54599;SDS011;40500;51.084;16.958;2023-02-15T10:04:33;24.80;;;13.80;;
54599;SDS011;40500;51.084;16.958;2023-02-15T10:07:19;23.70;;;12.30;;
54599;SDS011;40500;51.084;16.958;2023-02-15T10:10:04;30.00;;;14.80;;
54599;SDS011;40500;51.084;16.958;2023-02-15T10:12:52;27.00;;;14.70;;
54599;SDS011;40500;51.084;16.958;2023-02-15T10:15:42;21.40;;;11.70;;
54599;SDS011;40500;51.084;16.958;2023-02-15T10:18:22;22.80;;;12.80;;
54599;SDS011;40500;51.084;16.958;2023-02-15T10:21:00;25.50;;;13.40;;
54599;SDS011;40500;51.084;16.958;2023-02-15T10:40:22;24.80;;;12.40;;
54599;SDS011;40500;51.084;16.958;2023-02-15T10:43:16;23.30;;;12.70;;
54599;SDS011;40500;51.084;16.958;2023-02-15T10:46:28;25.80;;;13.40;;
54599;SDS011;40500;51.084;16.958;2023-02-15T10:53:45;23.90;;;13.40;;
54599;SDS011;40500;51.084;16.958;2023-02-15T10:56:40;29.50;;;15.90;;
54599;SDS011;40500;51.084;16.958;2023-02-15T11:10:29;29.80;;;15.60;;
54599;SDS011;40500;51.084;16.958;2023-02-15T11:13:02;31.00;;;16.60;;
54599;SDS011;40500;51.084;16.958;2023-02-15T11:15:40;29.20;;;16.70;;
54599;SDS011;40500;51.084;16.958;2023-02-15T11:18:15;25.70;;;15.10;;
54599;SDS011;40500;51.084;16.958;2023-02-15T11:20:50;30.10;;;16.10;;
54599;SDS011;40500;51.084;16.958;2023-02-15T11:23:21;27.00;;;14.90;;
54599;SDS011;40500;51.084;16.958;2023-02-15T11:25:54;23.60;;;12.00;;
54599;SDS011;40500;51.084;16.958;2023-02-15T11:28:27;32.70;;;17.60;;
54599;SDS011;40500;51.084;16.958;2023-02-15T11:31:13;23.40;;;12.30;;
54599;SDS011;40500;51.084;16.958;2023-02-15T11:34:03;23.00;;;13.80;;
54599;SDS011;40500;51.084;16.958;2023-02-15T11:36:39;27.70;;;15.40;;
54599;SDS011;40500;51.084;16.958;2023-02-15T11:39:13;24.20;;;13.70;;
54599;SDS011;40500;51.084;16.958;2023-02-15T11:41:44;27.30;;;14.90;;
54599;SDS011;40500;51.084;16.958;2023-02-15T11:44:19;22.80;;;12.50;;
54599;SDS011;40500;51.084;16.958;2023-02-15T11:46:50;29.50;;;15.50;;
54599;SDS011;40500;51.084;16.958;2023-02-15T11:51:56;25.40;;;14.40;;
54599;SDS011;40500;51.084;16.958;2023-02-15T11:54:28;22.80;;;13.40;;
54599;SDS011;40500;51.084;16.958;2023-02-15T11:57:03;25.20;;;14.40;;
54599;SDS011;40500;51.084;16.958;2023-02-15T11:59:38;23.60;;;13.00;;
54599;SDS011;40500;51.084;16.958;2023-02-15T12:02:15;21.80;;;12.70;;
54599;SDS011;40500;51.084;16.958;2023-02-15T12:04:48;19.90;;;11.70;;
54599;SDS011;40500;51.084;16.958;2023-02-15T12:07:24;25.30;;;14.30;;
54599;SDS011;40500;51.084;16.958;2023-02-15T12:09:56;22.40;;;14.20;;
54599;SDS011;40500;51.084;16.958;2023-02-15T12:12:31;24.20;;;13.60;;
54599;SDS011;40500;51.084;16.958;2023-02-15T12:15:00;23.20;;;13.40;;
54599;SDS011;40500;51.084;16.958;2023-02-15T12:17:31;19.40;;;12.50;;
54599;SDS011;40500;51.084;16.958;2023-02-15T12:20:21;24.60;;;13.20;;
54599;SDS011;40500;51.084;16.958;2023-02-15T12:22:59;21.80;;;12.70;;
54599;SDS011;40500;51.084;16.958;2023-02-15T12:25:36;26.40;;;14.80;;
54599;SDS011;40500;51.084;16.958;2023-02-15T12:28:22;24.60;;;14.50;;
54599;SDS011;40500;51.084;16.958;2023-02-15T12:30:59;23.20;;;14.50;;
54599;SDS011;40500;51.084;16.958;2023-02-15T12:33:34;19.50;;;11.60;;
54599;SDS011;40500;51.084;16.958;2023-02-15T12:36:11;15.90;;;9.70;;
54599;SDS011;40500;51.084;16.958;2023-02-15T12:39:05;21.70;;;12.60;;
54599;SDS011;40500;51.084;16.958;2023-02-15T12:41:45;19.20;;;12.50;;
54599;SDS011;40500;51.084;16.958;2023-02-15T12:44:36;24.10;;;13.50;;
54599;SDS011;40500;51.084;16.958;2023-02-15T12:53:06;18.80;;;11.90;;
54599;SDS011;40500;51.084;16.958;2023-02-15T12:56:03;22.00;;;13.40;;
54599;SDS011;40500;51.084;16.958;2023-02-15T12:58:52;22.50;;;12.80;;
54599;SDS011;40500;51.084;16.958;2023-02-15T13:01:36;22.90;;;14.20;;
54599;SDS011;40500;51.084;16.958;2023-02-15T13:04:04;24.90;;;15.00;;
54599;SDS011;40500;51.084;16.958;2023-02-15T13:06:47;21.50;;;13.30;;
54599;SDS011;40500;51.084;16.958;2023-02-15T13:09:19;25.50;;;15.60;;
54599;SDS011;40500;51.084;16.958;2023-02-15T13:11:54;24.70;;;15.60;;
54599;SDS011;40500;51.084;16.958;2023-02-15T13:14:25;22.90;;;15.40;;
54599;SDS011;40500;51.084;16.958;2023-02-15T13:17:00;27.00;;;16.90;;
54599;SDS011;40500;51.084;16.958;2023-02-15T13:19:39;22.50;;;15.70;;
54599;SDS011;40500;51.084;16.958;2023-02-15T13:25:25;21.70;;;15.70;;
54599;SDS011;40500;51.084;16.958;2023-02-15T13:28:11;24.40;;;16.20;;
54599;SDS011;40500;51.084;16.958;2023-02-15T13:30:46;22.40;;;17.70;;
54599;SDS011;40500;51.084;16.958;2023-02-15T13:33:29;21.80;;;16.20;;
54599;SDS011;40500;51.084;16.958;2023-02-15T13:36:13;20.70;;;16.20;;
54599;SDS011;40500;51.084;16.958;2023-02-15T13:38:50;22.40;;;18.10;;
54599;SDS011;40500;51.084;16.958;2023-02-15T13:41:38;22.10;;;17.00;;
54599;SDS011;40500;51.084;16.958;2023-02-15T13:44:20;21.70;;;16.80;;
54599;SDS011;40500;51.084;16.958;2023-02-15T13:47:12;19.80;;;15.30;;
54599;SDS011;40500;51.084;16.958;2023-02-15T13:53:12;20.70;;;15.60;;
54599;SDS011;40500;51.084;16.958;2023-02-15T13:55:54;18.90;;;16.40;;
54599;SDS011;40500;51.084;16.958;2023-02-15T13:58:47;20.70;;;17.00;;
54599;SDS011;40500;51.084;16.958;2023-02-15T14:01:48;20.40;;;16.30;;
54599;SDS011;40500;51.084;16.958;2023-02-15T14:04:27;22.40;;;16.50;;
54599;SDS011;40500;51.084;16.958;2023-02-15T14:10:34;21.20;;;15.80;;
54599;SDS011;40500;51.084;16.958;2023-02-15T14:13:24;20.40;;;15.70;;
54599;SDS011;40500;51.084;16.958;2023-02-15T14:16:22;20.10;;;16.10;;
54599;SDS011;40500;51.084;16.958;2023-02-15T14:19:35;18.60;;;15.90;;
54599;SDS011;40500;51.084;16.958;2023-02-15T14:22:07;20.50;;;15.50;;
54599;SDS011;40500;51.084;16.958;2023-02-15T14:24:42;18.80;;;15.40;;
54599;SDS011;40500;51.084;16.958;2023-02-15T14:27:20;21.10;;;16.70;;
54599;SDS011;40500;51.084;16.958;2023-02-15T14:29:53;21.60;;;16.10;;
54599;SDS011;40500;51.084;16.958;2023-02-15T14:32:25;23.60;;;16.50;;
54599;SDS011;40500;51.084;16.958;2023-02-15T14:35:00;22.00;;;14.70;;
54599;SDS011;40500;51.084;16.958;2023-02-15T14:37:33;19.90;;;13.40;;
54599;SDS011;40500;51.084;16.958;2023-02-15T14:40:12;25.40;;;17.10;;
54599;SDS011;40500;51.084;16.958;2023-02-15T14:43:11;23.90;;;15.90;;
54599;SDS011;40500;51.084;16.958;2023-02-15T14:45:48;24.10;;;15.60;;
54599;SDS011;40500;51.084;16.958;2023-02-15T14:48:20;26.50;;;16.90;;
54599;SDS011;40500;51.084;16.958;2023-02-15T14:50:52;23.50;;;16.30;;
54599;SDS011;40500;51.084;16.958;2023-02-15T14:53:36;22.20;;;14.50;;
54599;SDS011;40500;51.084;16.958;2023-02-15T14:56:06;22.60;;;15.10;;
54599;SDS011;40500;51.084;16.958;2023-02-15T14:58:58;23.90;;;14.20;;
54599;SDS011;40500;51.084;16.958;2023-02-15T15:01:39;19.90;;;13.40;;
54599;SDS011;40500;51.084;16.958;2023-02-15T15:04:08;22.30;;;14.10;;
54599;SDS011;40500;51.084;16.958;2023-02-15T15:06:40;25.60;;;14.00;;
54599;SDS011;40500;51.084;16.958;2023-02-15T15:09:11;26.20;;;15.40;;
54599;SDS011;40500;51.084;16.958;2023-02-15T15:11:49;20.10;;;12.30;;
54599;SDS011;40500;51.084;16.958;2023-02-15T15:14:37;20.90;;;14.00;;
54599;SDS011;40500;51.084;16.958;2023-02-15T15:17:10;19.00;;;13.00;;
54599;SDS011;40500;51.084;16.958;2023-02-15T15:22:39;20.70;;;12.20;;
54599;SDS011;40500;51.084;16.958;2023-02-15T15:25:12;23.60;;;13.30;;
54599;SDS011;40500;51.084;16.958;2023-02-15T15:28:08;19.00;;;11.50;;
54599;SDS011;40500;51.084;16.958;2023-02-15T15:33:44;17.70;;;11.90;;
54599;SDS011;40500;51.084;16.958;2023-02-15T15:36:39;20.90;;;12.70;;
54599;SDS011;40500;51.084;16.958;2023-02-15T15:42:49;22.70;;;13.70;;
54599;SDS011;40500;51.084;16.958;2023-02-15T15:45:35;22.10;;;12.70;;
54599;SDS011;40500;51.084;16.958;2023-02-15T15:51:05;18.60;;;12.00;;
54599;SDS011;40500;51.084;16.958;2023-02-15T15:53:40;23.90;;;13.90;;
54599;SDS011;40500;51.084;16.958;2023-02-15T15:56:13;21.50;;;12.70;;
54599;SDS011;40500;51.084;16.958;2023-02-15T15:58:46;22.40;;;12.30;;
54599;SDS011;40500;51.084;16.958;2023-02-15T16:01:21;22.10;;;12.70;;
54599;SDS011;40500;51.084;16.958;2023-02-15T16:03:53;22.40;;;12.20;;
54599;SDS011;40500;51.084;16.958;2023-02-15T16:06:33;24.10;;;12.80;;
54599;SDS011;40500;51.084;16.958;2023-02-15T16:09:12;21.80;;;12.30;;
54599;SDS011;40500;51.084;16.958;2023-02-15T16:11:44;21.90;;;13.90;;